sensor_id;sensor_type;location;lat;lon;timestamp;P1;durP1;ratioP1;P2;durP2;ratioP2
64597;SDS011;51004;54.692;9.332;2023-07-28T00:00:59;6.32;;;4.28;;
64597;SDS011;51004;54.692;9.332;2023-07-28T00:03:25;4.97;;;4.15;;
64597;SDS011;51004;54.692;9.332;2023-07-28T00:05:51;5.25;;;4.68;;
64597;SDS011;51004;54.692;9.332;2023-07-28T00:08:17;5.32;;;4.63;;
64597;SDS011;51004;54.692;9.332;2023-07-28T00:10:43;6.90;;;5.25;;
64597;SDS011;51004;54.692;9.332;2023-07-28T00:13:09;8.45;;;5.13;;
64597;SDS011;51004;54.692;9.332;2023-07-28T00:15:35;5.50;;;4.97;;
64597;SDS011;51004;54.692;9.332;2023-07-28T00:18:01;7.43;;;5.28;;
64597;SDS011;51004;54.692;9.332;2023-07-28T00:20:27;6.22;;;5.00;;
64597;SDS011;51004;54.692;9.332;2023-07-28T00:22:53;7.35;;;4.15;;
64597;SDS011;51004;54.692;9.332;2023-07-28T00:25:19;7.22;;;5.70;;
64597;SDS011;51004;54.692;9.332;2023-07-28T00:27:47;8.45;;;5.57;;
64597;SDS011;51004;54.692;9.332;2023-07-28T00:30:13;7.75;;;5.50;;
64597;SDS011;51004;54.692;9.332;2023-07-28T00:32:39;6.40;;;5.30;;
64597;SDS011;51004;54.692;9.332;2023-07-28T00:35:05;6.97;;;5.60;;
64597;SDS011;51004;54.692;9.332;2023-07-28T00:37:31;6.15;;;5.55;;
64597;SDS011;51004;54.692;9.332;2023-07-28T00:39:57;7.93;;;5.43;;
64597;SDS011;51004;54.692;9.332;2023-07-28T00:42:23;5.70;;;4.90;;
64597;SDS011;51004;54.692;9.332;2023-07-28T00:44:48;6.25;;;5.55;;
64597;SDS011;51004;54.692;9.332;2023-07-28T00:47:14;6.43;;;5.22;;
64597;SDS011;51004;54.692;9.332;2023-07-28T00:49:40;7.32;;;5.43;;
64597;SDS011;51004;54.692;9.332;2023-07-28T00:52:07;6.78;;;5.80;;
64597;SDS011;51004;54.692;9.332;2023-07-28T00:54:33;6.68;;;5.90;;
64597;SDS011;51004;54.692;9.332;2023-07-28T00:57:00;7.28;;;5.47;;
64597;SDS011;51004;54.692;9.332;2023-07-28T00:59:26;9.70;;;5.15;;
64597;SDS011;51004;54.692;9.332;2023-07-28T01:01:52;6.50;;;4.72;;
64597;SDS011;51004;54.692;9.332;2023-07-28T01:04:18;7.32;;;5.18;;
64597;SDS011;51004;54.692;9.332;2023-07-28T01:06:47;5.57;;;4.60;;
64597;SDS011;51004;54.692;9.332;2023-07-28T01:09:19;5.63;;;5.03;;
64597;SDS011;51004;54.692;9.332;2023-07-28T01:11:56;6.35;;;4.68;;
64597;SDS011;51004;54.692;9.332;2023-07-28T01:14:23;6.43;;;4.95;;
64597;SDS011;51004;54.692;9.332;2023-07-28T01:16:49;5.47;;;4.90;;
64597;SDS011;51004;54.692;9.332;2023-07-28T01:19:16;7.53;;;5.32;;
64597;SDS011;51004;54.692;9.332;2023-07-28T01:21:45;6.18;;;5.38;;
64597;SDS011;51004;54.692;9.332;2023-07-28T01:27:06;6.05;;;5.45;;
64597;SDS011;51004;54.692;9.332;2023-07-28T01:29:32;6.72;;;5.53;;
64597;SDS011;51004;54.692;9.332;2023-07-28T01:31:59;7.22;;;5.90;;
64597;SDS011;51004;54.692;9.332;2023-07-28T01:34:25;7.40;;;5.80;;
64597;SDS011;51004;54.692;9.332;2023-07-28T01:36:51;7.03;;;6.07;;
64597;SDS011;51004;54.692;9.332;2023-07-28T01:39:17;8.82;;;5.40;;
64597;SDS011;51004;54.692;9.332;2023-07-28T01:41:43;6.35;;;5.50;;
64597;SDS011;51004;54.692;9.332;2023-07-28T01:44:10;6.85;;;6.13;;
64597;SDS011;51004;54.692;9.332;2023-07-28T01:46:36;6.70;;;5.82;;
64597;SDS011;51004;54.692;9.332;2023-07-28T01:49:02;7.07;;;6.38;;
64597;SDS011;51004;54.692;9.332;2023-07-28T01:51:28;8.38;;;6.53;;
64597;SDS011;51004;54.692;9.332;2023-07-28T01:53:54;7.50;;;6.20;;
64597;SDS011;51004;54.692;9.332;2023-07-28T01:56:19;10.45;;;6.80;;
64597;SDS011;51004;54.692;9.332;2023-07-28T01:58:45;11.10;;;6.57;;
64597;SDS011;51004;54.692;9.332;2023-07-28T02:01:15;8.38;;;7.32;;
64597;SDS011;51004;54.692;9.332;2023-07-28T02:03:41;9.10;;;6.90;;
64597;SDS011;51004;54.692;9.332;2023-07-28T02:06:07;7.30;;;6.60;;
64597;SDS011;51004;54.692;9.332;2023-07-28T02:08:33;8.93;;;6.97;;
64597;SDS011;51004;54.692;9.332;2023-07-28T02:10:59;8.52;;;7.00;;
64597;SDS011;51004;54.692;9.332;2023-07-28T02:13:25;9.27;;;7.28;;
64597;SDS011;51004;54.692;9.332;2023-07-28T02:15:51;8.77;;;7.20;;
64597;SDS011;51004;54.692;9.332;2023-07-28T02:18:17;8.20;;;6.97;;
64597;SDS011;51004;54.692;9.332;2023-07-28T02:20:43;9.93;;;6.95;;
64597;SDS011;51004;54.692;9.332;2023-07-28T02:23:08;11.48;;;8.75;;
64597;SDS011;51004;54.692;9.332;2023-07-28T02:25:34;9.50;;;7.90;;
64597;SDS011;51004;54.692;9.332;2023-07-28T02:28:00;8.77;;;7.63;;
64597;SDS011;51004;54.692;9.332;2023-07-28T02:30:26;9.48;;;8.35;;
64597;SDS011;51004;54.692;9.332;2023-07-28T02:32:52;8.85;;;7.78;;
64597;SDS011;51004;54.692;9.332;2023-07-28T02:35:18;9.15;;;7.80;;
64597;SDS011;51004;54.692;9.332;2023-07-28T02:37:44;9.32;;;8.00;;
64597;SDS011;51004;54.692;9.332;2023-07-28T02:40:10;9.02;;;7.95;;
64597;SDS011;51004;54.692;9.332;2023-07-28T02:42:37;10.65;;;7.95;;
64597;SDS011;51004;54.692;9.332;2023-07-28T02:45:03;9.77;;;8.23;;
64597;SDS011;51004;54.692;9.332;2023-07-28T02:47:30;9.07;;;8.15;;
64597;SDS011;51004;54.692;9.332;2023-07-28T02:50:04;9.45;;;8.05;;
64597;SDS011;51004;54.692;9.332;2023-07-28T02:52:30;10.38;;;8.18;;
64597;SDS011;51004;54.692;9.332;2023-07-28T02:54:56;8.93;;;8.00;;
64597;SDS011;51004;54.692;9.332;2023-07-28T02:57:22;11.43;;;9.07;;
64597;SDS011;51004;54.692;9.332;2023-07-28T02:59:48;11.30;;;9.20;;
64597;SDS011;51004;54.692;9.332;2023-07-28T03:02:14;11.70;;;9.30;;
64597;SDS011;51004;54.692;9.332;2023-07-28T03:04:40;11.80;;;9.82;;
64597;SDS011;51004;54.692;9.332;2023-07-28T03:07:06;10.75;;;9.65;;
64597;SDS011;51004;54.692;9.332;2023-07-28T03:09:32;10.60;;;9.13;;
64597;SDS011;51004;54.692;9.332;2023-07-28T03:11:58;10.02;;;9.02;;
64597;SDS011;51004;54.692;9.332;2023-07-28T03:14:24;13.55;;;8.80;;
64597;SDS011;51004;54.692;9.332;2023-07-28T03:16:50;9.77;;;8.68;;
64597;SDS011;51004;54.692;9.332;2023-07-28T03:19:15;12.05;;;9.05;;
64597;SDS011;51004;54.692;9.332;2023-07-28T03:21:42;9.60;;;8.30;;
64597;SDS011;51004;54.692;9.332;2023-07-28T03:24:08;10.75;;;8.90;;
64597;SDS011;51004;54.692;9.332;2023-07-28T03:26:34;11.45;;;9.38;;
64597;SDS011;51004;54.692;9.332;2023-07-28T03:29:00;12.43;;;9.40;;
64597;SDS011;51004;54.692;9.332;2023-07-28T03:31:26;11.10;;;8.75;;
64597;SDS011;51004;54.692;9.332;2023-07-28T03:33:52;10.60;;;8.27;;
64597;SDS011;51004;54.692;9.332;2023-07-28T03:36:18;9.90;;;8.88;;
64597;SDS011;51004;54.692;9.332;2023-07-28T03:38:44;9.60;;;8.50;;
64597;SDS011;51004;54.692;9.332;2023-07-28T03:41:11;12.02;;;8.60;;
64597;SDS011;51004;54.692;9.332;2023-07-28T03:43:37;12.88;;;8.40;;
64597;SDS011;51004;54.692;9.332;2023-07-28T03:46:03;12.82;;;8.73;;
64597;SDS011;51004;54.692;9.332;2023-07-28T03:48:29;12.75;;;8.13;;
64597;SDS011;51004;54.692;9.332;2023-07-28T03:50:55;9.40;;;8.52;;
64597;SDS011;51004;54.692;9.332;2023-07-28T03:53:21;9.45;;;7.95;;
64597;SDS011;51004;54.692;9.332;2023-07-28T03:55:47;11.23;;;8.63;;
64597;SDS011;51004;54.692;9.332;2023-07-28T03:58:13;9.15;;;8.07;;
64597;SDS011;51004;54.692;9.332;2023-07-28T04:00:39;12.05;;;8.48;;
64597;SDS011;51004;54.692;9.332;2023-07-28T04:03:05;11.50;;;8.57;;
64597;SDS011;51004;54.692;9.332;2023-07-28T04:05:31;10.35;;;8.65;;
64597;SDS011;51004;54.692;9.332;2023-07-28T04:07:57;12.60;;;8.55;;
64597;SDS011;51004;54.692;9.332;2023-07-28T04:10:23;10.82;;;9.57;;
64597;SDS011;51004;54.692;9.332;2023-07-28T04:12:49;10.30;;;8.20;;
64597;SDS011;51004;54.692;9.332;2023-07-28T04:15:15;10.45;;;9.35;;
64597;SDS011;51004;54.692;9.332;2023-07-28T04:17:41;10.65;;;9.32;;
64597;SDS011;51004;54.692;9.332;2023-07-28T04:20:07;10.55;;;8.65;;
64597;SDS011;51004;54.692;9.332;2023-07-28T04:22:33;10.30;;;8.60;;
64597;SDS011;51004;54.692;9.332;2023-07-28T04:24:59;11.45;;;8.52;;
64597;SDS011;51004;54.692;9.332;2023-07-28T04:27:25;9.35;;;8.32;;
64597;SDS011;51004;54.692;9.332;2023-07-28T04:29:51;11.23;;;8.32;;
64597;SDS011;51004;54.692;9.332;2023-07-28T04:32:16;10.38;;;8.55;;
64597;SDS011;51004;54.692;9.332;2023-07-28T04:34:42;9.23;;;8.05;;
64597;SDS011;51004;54.692;9.332;2023-07-28T04:37:08;10.02;;;8.82;;
64597;SDS011;51004;54.692;9.332;2023-07-28T04:39:34;9.80;;;8.77;;
64597;SDS011;51004;54.692;9.332;2023-07-28T04:42:00;10.90;;;9.13;;
64597;SDS011;51004;54.692;9.332;2023-07-28T04:44:26;11.07;;;8.85;;
64597;SDS011;51004;54.692;9.332;2023-07-28T04:46:52;10.20;;;9.20;;
64597;SDS011;51004;54.692;9.332;2023-07-28T04:49:18;12.05;;;8.98;;
64597;SDS011;51004;54.692;9.332;2023-07-28T04:51:46;10.82;;;9.73;;
64597;SDS011;51004;54.692;9.332;2023-07-28T04:54:12;13.38;;;10.07;;
64597;SDS011;51004;54.692;9.332;2023-07-28T04:56:38;14.65;;;11.10;;
64597;SDS011;51004;54.692;9.332;2023-07-28T04:59:04;12.02;;;10.60;;
64597;SDS011;51004;54.692;9.332;2023-07-28T05:01:31;13.55;;;10.98;;
64597;SDS011;51004;54.692;9.332;2023-07-28T05:03:57;11.27;;;10.18;;
64597;SDS011;51004;54.692;9.332;2023-07-28T05:06:23;14.30;;;11.27;;
64597;SDS011;51004;54.692;9.332;2023-07-28T05:08:56;12.35;;;10.30;;
64597;SDS011;51004;54.692;9.332;2023-07-28T05:11:22;14.50;;;12.02;;
64597;SDS011;51004;54.692;9.332;2023-07-28T05:13:48;13.60;;;12.10;;
64597;SDS011;51004;54.692;9.332;2023-07-28T05:16:18;14.05;;;11.57;;
64597;SDS011;51004;54.692;9.332;2023-07-28T05:18:45;14.95;;;11.32;;
64597;SDS011;51004;54.692;9.332;2023-07-28T05:21:21;13.80;;;11.43;;
64597;SDS011;51004;54.692;9.332;2023-07-28T05:24:06;14.68;;;11.95;;
64597;SDS011;51004;54.692;9.332;2023-07-28T05:26:34;14.23;;;11.40;;
64597;SDS011;51004;54.692;9.332;2023-07-28T05:29:03;13.35;;;11.95;;
64597;SDS011;51004;54.692;9.332;2023-07-28T05:31:35;18.05;;;13.35;;
64597;SDS011;51004;54.692;9.332;2023-07-28T05:34:36;18.40;;;12.75;;
64597;SDS011;51004;54.692;9.332;2023-07-28T05:40:40;20.48;;;14.05;;
64597;SDS011;51004;54.692;9.332;2023-07-28T05:43:12;24.90;;;14.70;;
64597;SDS011;51004;54.692;9.332;2023-07-28T05:45:58;18.98;;;14.95;;
64597;SDS011;51004;54.692;9.332;2023-07-28T05:48:36;24.25;;;16.77;;
64597;SDS011;51004;54.692;9.332;2023-07-28T05:54:21;23.63;;;16.95;;
64597;SDS011;51004;54.692;9.332;2023-07-28T05:57:05;23.48;;;17.60;;
64597;SDS011;51004;54.692;9.332;2023-07-28T05:59:39;27.50;;;17.55;;
64597;SDS011;51004;54.692;9.332;2023-07-28T06:02:05;27.92;;;17.80;;
64597;SDS011;51004;54.692;9.332;2023-07-28T06:04:34;24.38;;;18.10;;
64597;SDS011;51004;54.692;9.332;2023-07-28T06:07:03;28.13;;;18.42;;
64597;SDS011;51004;54.692;9.332;2023-07-28T06:09:40;28.20;;;17.92;;
64597;SDS011;51004;54.692;9.332;2023-07-28T06:12:06;23.33;;;15.25;;
64597;SDS011;51004;54.692;9.332;2023-07-28T06:14:32;21.08;;;14.07;;
64597;SDS011;51004;54.692;9.332;2023-07-28T06:17:00;23.92;;;15.35;;
64597;SDS011;51004;54.692;9.332;2023-07-28T06:19:29;24.08;;;14.75;;
64597;SDS011;51004;54.692;9.332;2023-07-28T06:21:55;25.25;;;14.65;;
64597;SDS011;51004;54.692;9.332;2023-07-28T06:24:21;21.48;;;14.50;;
64597;SDS011;51004;54.692;9.332;2023-07-28T06:26:49;16.30;;;10.98;;
64597;SDS011;51004;54.692;9.332;2023-07-28T06:29:15;16.63;;;10.77;;
64597;SDS011;51004;54.692;9.332;2023-07-28T06:31:41;21.60;;;14.25;;
64597;SDS011;51004;54.692;9.332;2023-07-28T06:34:07;21.20;;;13.38;;
64597;SDS011;51004;54.692;9.332;2023-07-28T06:36:34;18.08;;;12.55;;
64597;SDS011;51004;54.692;9.332;2023-07-28T06:39:00;18.52;;;12.40;;
64597;SDS011;51004;54.692;9.332;2023-07-28T06:41:26;17.42;;;11.73;;
64597;SDS011;51004;54.692;9.332;2023-07-28T06:43:52;14.20;;;10.75;;
64597;SDS011;51004;54.692;9.332;2023-07-28T06:46:18;16.90;;;12.85;;
64597;SDS011;51004;54.692;9.332;2023-07-28T06:48:44;15.57;;;11.18;;
64597;SDS011;51004;54.692;9.332;2023-07-28T06:51:10;15.38;;;10.93;;
64597;SDS011;51004;54.692;9.332;2023-07-28T06:53:35;14.48;;;9.90;;
64597;SDS011;51004;54.692;9.332;2023-07-28T06:56:01;14.18;;;9.10;;
64597;SDS011;51004;54.692;9.332;2023-07-28T06:58:27;12.98;;;7.85;;
64597;SDS011;51004;54.692;9.332;2023-07-28T07:00:53;8.75;;;7.72;;
64597;SDS011;51004;54.692;9.332;2023-07-28T07:03:20;12.48;;;7.22;;
64597;SDS011;51004;54.692;9.332;2023-07-28T07:05:48;10.48;;;8.07;;
64597;SDS011;51004;54.692;9.332;2023-07-28T07:08:14;9.38;;;7.10;;
64597;SDS011;51004;54.692;9.332;2023-07-28T07:10:40;8.60;;;6.90;;
64597;SDS011;51004;54.692;9.332;2023-07-28T07:13:06;9.00;;;6.18;;
64597;SDS011;51004;54.692;9.332;2023-07-28T07:15:33;6.90;;;6.20;;
64597;SDS011;51004;54.692;9.332;2023-07-28T07:18:00;7.20;;;6.20;;
64597;SDS011;51004;54.692;9.332;2023-07-28T07:20:26;7.70;;;6.10;;
64597;SDS011;51004;54.692;9.332;2023-07-28T07:22:52;8.80;;;6.88;;
64597;SDS011;51004;54.692;9.332;2023-07-28T07:25:18;9.50;;;7.88;;
64597;SDS011;51004;54.692;9.332;2023-07-28T07:27:47;8.13;;;5.70;;
64597;SDS011;51004;54.692;9.332;2023-07-28T07:30:13;9.45;;;5.32;;
64597;SDS011;51004;54.692;9.332;2023-07-28T07:32:39;6.75;;;4.05;;
64597;SDS011;51004;54.692;9.332;2023-07-28T07:35:05;6.10;;;4.07;;
64597;SDS011;51004;54.692;9.332;2023-07-28T07:37:31;5.50;;;4.40;;
64597;SDS011;51004;54.692;9.332;2023-07-28T07:39:57;7.30;;;4.60;;
64597;SDS011;51004;54.692;9.332;2023-07-28T07:42:25;5.95;;;4.20;;
64597;SDS011;51004;54.692;9.332;2023-07-28T07:44:51;7.22;;;5.40;;
64597;SDS011;51004;54.692;9.332;2023-07-28T07:47:17;6.85;;;4.80;;
64597;SDS011;51004;54.692;9.332;2023-07-28T07:49:43;5.38;;;3.90;;
64597;SDS011;51004;54.692;9.332;2023-07-28T07:52:09;5.85;;;4.22;;
64597;SDS011;51004;54.692;9.332;2023-07-28T07:54:35;6.38;;;3.70;;
64597;SDS011;51004;54.692;9.332;2023-07-28T07:57:02;6.18;;;4.07;;
64597;SDS011;51004;54.692;9.332;2023-07-28T07:59:28;4.78;;;3.50;;
64597;SDS011;51004;54.692;9.332;2023-07-28T08:01:57;4.47;;;3.33;;
64597;SDS011;51004;54.692;9.332;2023-07-28T08:04:25;4.07;;;3.35;;
64597;SDS011;51004;54.692;9.332;2023-07-28T08:06:52;4.15;;;2.75;;
64597;SDS011;51004;54.692;9.332;2023-07-28T08:09:19;3.70;;;2.83;;
64597;SDS011;51004;54.692;9.332;2023-07-28T08:11:45;4.50;;;2.65;;
64597;SDS011;51004;54.692;9.332;2023-07-28T08:14:11;5.82;;;2.63;;
64597;SDS011;51004;54.692;9.332;2023-07-28T08:16:36;4.00;;;2.17;;
64597;SDS011;51004;54.692;9.332;2023-07-28T08:19:03;5.03;;;3.25;;
64597;SDS011;51004;54.692;9.332;2023-07-28T08:21:29;4.25;;;3.05;;
64597;SDS011;51004;54.692;9.332;2023-07-28T08:23:56;4.25;;;2.92;;
64597;SDS011;51004;54.692;9.332;2023-07-28T08:26:22;3.33;;;2.65;;
64597;SDS011;51004;54.692;9.332;2023-07-28T08:28:48;3.05;;;2.40;;
64597;SDS011;51004;54.692;9.332;2023-07-28T08:31:15;3.47;;;2.30;;
64597;SDS011;51004;54.692;9.332;2023-07-28T08:33:41;3.05;;;2.35;;
64597;SDS011;51004;54.692;9.332;2023-07-28T08:36:07;3.25;;;2.20;;
64597;SDS011;51004;54.692;9.332;2023-07-28T08:38:33;3.53;;;2.20;;
64597;SDS011;51004;54.692;9.332;2023-07-28T08:40:59;3.28;;;2.47;;
64597;SDS011;51004;54.692;9.332;2023-07-28T08:43:25;3.17;;;2.50;;
64597;SDS011;51004;54.692;9.332;2023-07-28T08:45:51;2.63;;;2.22;;
64597;SDS011;51004;54.692;9.332;2023-07-28T08:48:18;2.55;;;1.83;;
64597;SDS011;51004;54.692;9.332;2023-07-28T08:50:44;2.75;;;1.83;;
64597;SDS011;51004;54.692;9.332;2023-07-28T08:53:10;3.83;;;2.25;;
64597;SDS011;51004;54.692;9.332;2023-07-28T08:55:36;4.10;;;1.92;;
64597;SDS011;51004;54.692;9.332;2023-07-28T08:58:17;3.40;;;1.90;;
64597;SDS011;51004;54.692;9.332;2023-07-28T09:00:47;3.33;;;2.15;;
64597;SDS011;51004;54.692;9.332;2023-07-28T09:03:17;2.80;;;1.80;;
64597;SDS011;51004;54.692;9.332;2023-07-28T09:05:43;3.75;;;2.28;;
64597;SDS011;51004;54.692;9.332;2023-07-28T09:08:11;3.83;;;2.17;;
64597;SDS011;51004;54.692;9.332;2023-07-28T09:10:44;6.57;;;2.15;;
64597;SDS011;51004;54.692;9.332;2023-07-28T09:13:11;4.25;;;1.92;;
64597;SDS011;51004;54.692;9.332;2023-07-28T09:15:37;3.47;;;2.25;;
64597;SDS011;51004;54.692;9.332;2023-07-28T09:18:04;3.15;;;1.90;;
64597;SDS011;51004;54.692;9.332;2023-07-28T09:20:36;3.53;;;1.90;;
64597;SDS011;51004;54.692;9.332;2023-07-28T09:23:02;3.03;;;2.03;;
64597;SDS011;51004;54.692;9.332;2023-07-28T09:25:28;3.22;;;2.03;;
64597;SDS011;51004;54.692;9.332;2023-07-28T09:27:55;2.35;;;1.60;;
64597;SDS011;51004;54.692;9.332;2023-07-28T09:30:23;3.47;;;2.33;;
64597;SDS011;51004;54.692;9.332;2023-07-28T09:32:50;2.95;;;2.28;;
64597;SDS011;51004;54.692;9.332;2023-07-28T09:35:16;2.40;;;1.75;;
64597;SDS011;51004;54.692;9.332;2023-07-28T09:37:44;2.83;;;2.10;;
64597;SDS011;51004;54.692;9.332;2023-07-28T09:40:12;4.18;;;2.30;;
64597;SDS011;51004;54.692;9.332;2023-07-28T09:42:39;6.47;;;1.88;;
64597;SDS011;51004;54.692;9.332;2023-07-28T09:45:05;2.78;;;1.70;;
64597;SDS011;51004;54.692;9.332;2023-07-28T09:47:33;2.53;;;1.92;;
64597;SDS011;51004;54.692;9.332;2023-07-28T09:49:59;4.88;;;1.50;;
64597;SDS011;51004;54.692;9.332;2023-07-28T09:52:27;4.05;;;1.80;;
64597;SDS011;51004;54.692;9.332;2023-07-28T09:54:55;2.80;;;1.90;;
64597;SDS011;51004;54.692;9.332;2023-07-28T09:57:23;3.33;;;1.63;;
64597;SDS011;51004;54.692;9.332;2023-07-28T09:59:51;3.15;;;1.50;;
64597;SDS011;51004;54.692;9.332;2023-07-28T10:02:20;2.70;;;1.58;;
64597;SDS011;51004;54.692;9.332;2023-07-28T10:04:46;4.55;;;1.50;;
64597;SDS011;51004;54.692;9.332;2023-07-28T10:07:12;2.95;;;1.40;;
64597;SDS011;51004;54.692;9.332;2023-07-28T10:09:38;2.80;;;1.60;;
64597;SDS011;51004;54.692;9.332;2023-07-28T10:12:05;3.30;;;1.85;;
64597;SDS011;51004;54.692;9.332;2023-07-28T10:14:33;2.72;;;1.73;;
64597;SDS011;51004;54.692;9.332;2023-07-28T10:17:02;3.25;;;1.75;;
64597;SDS011;51004;54.692;9.332;2023-07-28T10:19:29;1.70;;;1.33;;
64597;SDS011;51004;54.692;9.332;2023-07-28T10:21:59;2.58;;;1.75;;
64597;SDS011;51004;54.692;9.332;2023-07-28T10:27:10;2.40;;;1.67;;
64597;SDS011;51004;54.692;9.332;2023-07-28T10:29:36;1.77;;;1.20;;
64597;SDS011;51004;54.692;9.332;2023-07-28T10:32:05;2.42;;;1.60;;
64597;SDS011;51004;54.692;9.332;2023-07-28T10:34:31;2.78;;;1.73;;
64597;SDS011;51004;54.692;9.332;2023-07-28T10:36:58;1.90;;;1.20;;
64597;SDS011;51004;54.692;9.332;2023-07-28T10:39:24;4.05;;;1.60;;
64597;SDS011;51004;54.692;9.332;2023-07-28T10:42:06;6.43;;;1.70;;
64597;SDS011;51004;54.692;9.332;2023-07-28T10:44:33;2.47;;;1.30;;
64597;SDS011;51004;54.692;9.332;2023-07-28T10:46:59;3.47;;;1.20;;
64597;SDS011;51004;54.692;9.332;2023-07-28T10:49:26;4.80;;;2.05;;
64597;SDS011;51004;54.692;9.332;2023-07-28T10:51:52;3.15;;;1.95;;
64597;SDS011;51004;54.692;9.332;2023-07-28T10:54:18;2.40;;;1.67;;
64597;SDS011;51004;54.692;9.332;2023-07-28T10:56:47;3.10;;;1.58;;
64597;SDS011;51004;54.692;9.332;2023-07-28T10:59:13;4.10;;;2.10;;
64597;SDS011;51004;54.692;9.332;2023-07-28T11:01:40;1.75;;;1.30;;
64597;SDS011;51004;54.692;9.332;2023-07-28T11:04:10;2.20;;;1.40;;
64597;SDS011;51004;54.692;9.332;2023-07-28T11:06:37;2.78;;;1.40;;
64597;SDS011;51004;54.692;9.332;2023-07-28T11:09:05;2.75;;;1.45;;
64597;SDS011;51004;54.692;9.332;2023-07-28T11:11:31;1.80;;;1.42;;
64597;SDS011;51004;54.692;9.332;2023-07-28T11:13:58;2.97;;;1.45;;
64597;SDS011;51004;54.692;9.332;2023-07-28T11:16:24;2.28;;;1.50;;
64597;SDS011;51004;54.692;9.332;2023-07-28T11:18:51;3.03;;;1.52;;
64597;SDS011;51004;54.692;9.332;2023-07-28T11:21:17;2.20;;;1.50;;
64597;SDS011;51004;54.692;9.332;2023-07-28T11:23:45;1.67;;;1.23;;
64597;SDS011;51004;54.692;9.332;2023-07-28T11:26:11;2.88;;;1.60;;
64597;SDS011;51004;54.692;9.332;2023-07-28T11:28:37;2.80;;;1.55;;
64597;SDS011;51004;54.692;9.332;2023-07-28T11:31:03;2.13;;;1.50;;
64597;SDS011;51004;54.692;9.332;2023-07-28T11:33:29;2.47;;;1.48;;
64597;SDS011;51004;54.692;9.332;2023-07-28T11:35:56;2.05;;;1.40;;
64597;SDS011;51004;54.692;9.332;2023-07-28T11:38:22;2.17;;;1.50;;
64597;SDS011;51004;54.692;9.332;2023-07-28T11:40:49;2.08;;;1.30;;
64597;SDS011;51004;54.692;9.332;2023-07-28T11:43:15;1.95;;;1.33;;
64597;SDS011;51004;54.692;9.332;2023-07-28T11:45:41;1.95;;;1.40;;
64597;SDS011;51004;54.692;9.332;2023-07-28T11:48:07;2.75;;;1.40;;
64597;SDS011;51004;54.692;9.332;2023-07-28T11:50:37;2.53;;;1.50;;
64597;SDS011;51004;54.692;9.332;2023-07-28T11:53:03;2.45;;;1.30;;
64597;SDS011;51004;54.692;9.332;2023-07-28T11:55:31;1.73;;;1.23;;
64597;SDS011;51004;54.692;9.332;2023-07-28T11:57:57;2.42;;;1.40;;
64597;SDS011;51004;54.692;9.332;2023-07-28T12:00:36;2.05;;;1.52;;
64597;SDS011;51004;54.692;9.332;2023-07-28T12:05:41;2.47;;;1.40;;
64597;SDS011;51004;54.692;9.332;2023-07-28T12:08:08;2.33;;;1.42;;
64597;SDS011;51004;54.692;9.332;2023-07-28T12:10:34;1.83;;;1.35;;
64597;SDS011;51004;54.692;9.332;2023-07-28T12:13:04;2.13;;;1.23;;
64597;SDS011;51004;54.692;9.332;2023-07-28T12:15:31;2.42;;;1.58;;
64597;SDS011;51004;54.692;9.332;2023-07-28T12:18:04;2.95;;;1.80;;
64597;SDS011;51004;54.692;9.332;2023-07-28T12:20:34;2.85;;;1.50;;
64597;SDS011;51004;54.692;9.332;2023-07-28T12:23:00;3.13;;;1.70;;
64597;SDS011;51004;54.692;9.332;2023-07-28T12:25:26;3.08;;;1.60;;
64597;SDS011;51004;54.692;9.332;2023-07-28T12:27:52;2.90;;;1.60;;
64597;SDS011;51004;54.692;9.332;2023-07-28T12:30:18;1.65;;;1.30;;
64597;SDS011;51004;54.692;9.332;2023-07-28T12:32:44;2.88;;;1.48;;
64597;SDS011;51004;54.692;9.332;2023-07-28T12:35:11;2.63;;;1.40;;
64597;SDS011;51004;54.692;9.332;2023-07-28T12:37:37;1.60;;;1.30;;
64597;SDS011;51004;54.692;9.332;2023-07-28T12:40:03;3.63;;;1.63;;
64597;SDS011;51004;54.692;9.332;2023-07-28T12:42:30;2.10;;;1.70;;
64597;SDS011;51004;54.692;9.332;2023-07-28T12:44:57;4.20;;;1.50;;
64597;SDS011;51004;54.692;9.332;2023-07-28T12:47:24;2.95;;;1.70;;
64597;SDS011;51004;54.692;9.332;2023-07-28T12:49:50;2.15;;;1.40;;
64597;SDS011;51004;54.692;9.332;2023-07-28T12:52:16;2.63;;;1.73;;
64597;SDS011;51004;54.692;9.332;2023-07-28T12:54:42;2.17;;;1.80;;
64597;SDS011;51004;54.692;9.332;2023-07-28T12:57:08;2.40;;;1.42;;
64597;SDS011;51004;54.692;9.332;2023-07-28T12:59:37;2.08;;;1.52;;
64597;SDS011;51004;54.692;9.332;2023-07-28T13:02:03;2.55;;;1.35;;
64597;SDS011;51004;54.692;9.332;2023-07-28T13:04:29;2.67;;;1.75;;
64597;SDS011;51004;54.692;9.332;2023-07-28T13:06:55;3.67;;;1.67;;
64597;SDS011;51004;54.692;9.332;2023-07-28T13:09:21;2.25;;;1.70;;
64597;SDS011;51004;54.692;9.332;2023-07-28T13:11:47;2.60;;;1.70;;
64597;SDS011;51004;54.692;9.332;2023-07-28T13:14:13;2.13;;;1.60;;
64597;SDS011;51004;54.692;9.332;2023-07-28T13:16:39;2.55;;;1.50;;
64597;SDS011;51004;54.692;9.332;2023-07-28T13:19:05;2.30;;;1.30;;
64597;SDS011;51004;54.692;9.332;2023-07-28T13:21:31;2.72;;;1.90;;
64597;SDS011;51004;54.692;9.332;2023-07-28T13:23:58;2.42;;;1.80;;
64597;SDS011;51004;54.692;9.332;2023-07-28T13:26:24;3.65;;;1.80;;
64597;SDS011;51004;54.692;9.332;2023-07-28T13:28:50;2.88;;;2.28;;
64597;SDS011;51004;54.692;9.332;2023-07-28T13:31:16;3.58;;;2.28;;
64597;SDS011;51004;54.692;9.332;2023-07-28T13:33:43;3.70;;;2.17;;
64597;SDS011;51004;54.692;9.332;2023-07-28T13:36:09;5.10;;;2.08;;
64597;SDS011;51004;54.692;9.332;2023-07-28T13:38:35;2.47;;;1.75;;
64597;SDS011;51004;54.692;9.332;2023-07-28T13:41:03;2.28;;;1.73;;
64597;SDS011;51004;54.692;9.332;2023-07-28T13:43:30;2.25;;;1.63;;
64597;SDS011;51004;54.692;9.332;2023-07-28T13:45:56;2.42;;;1.48;;
64597;SDS011;51004;54.692;9.332;2023-07-28T13:48:22;3.47;;;1.98;;
64597;SDS011;51004;54.692;9.332;2023-07-28T13:50:49;1.80;;;1.25;;
64597;SDS011;51004;54.692;9.332;2023-07-28T13:53:15;2.22;;;1.40;;
64597;SDS011;51004;54.692;9.332;2023-07-28T13:55:41;3.13;;;1.55;;
64597;SDS011;51004;54.692;9.332;2023-07-28T13:58:07;2.35;;;1.48;;
64597;SDS011;51004;54.692;9.332;2023-07-28T14:00:33;2.80;;;1.83;;
64597;SDS011;51004;54.692;9.332;2023-07-28T14:02:59;2.50;;;1.80;;
64597;SDS011;51004;54.692;9.332;2023-07-28T14:05:25;2.55;;;1.80;;
64597;SDS011;51004;54.692;9.332;2023-07-28T14:07:51;2.97;;;1.77;;
64597;SDS011;51004;54.692;9.332;2023-07-28T14:10:17;3.50;;;1.67;;
64597;SDS011;51004;54.692;9.332;2023-07-28T14:12:42;2.53;;;1.63;;
64597;SDS011;51004;54.692;9.332;2023-07-28T14:15:08;2.28;;;1.75;;
64597;SDS011;51004;54.692;9.332;2023-07-28T14:17:34;1.92;;;1.20;;
64597;SDS011;51004;54.692;9.332;2023-07-28T14:20:00;2.45;;;1.20;;
64597;SDS011;51004;54.692;9.332;2023-07-28T14:22:26;2.45;;;1.42;;
64597;SDS011;51004;54.692;9.332;2023-07-28T14:24:52;2.70;;;1.65;;
64597;SDS011;51004;54.692;9.332;2023-07-28T14:27:18;3.30;;;1.80;;
64597;SDS011;51004;54.692;9.332;2023-07-28T14:29:44;3.30;;;1.90;;
64597;SDS011;51004;54.692;9.332;2023-07-28T14:32:10;2.83;;;1.92;;
64597;SDS011;51004;54.692;9.332;2023-07-28T14:34:36;2.78;;;1.83;;
64597;SDS011;51004;54.692;9.332;2023-07-28T14:37:03;2.72;;;1.60;;
64597;SDS011;51004;54.692;9.332;2023-07-28T14:39:30;2.47;;;1.70;;
64597;SDS011;51004;54.692;9.332;2023-07-28T14:41:56;2.53;;;1.45;;
64597;SDS011;51004;54.692;9.332;2023-07-28T14:44:22;2.75;;;1.40;;
64597;SDS011;51004;54.692;9.332;2023-07-28T14:46:48;2.67;;;1.20;;
64597;SDS011;51004;54.692;9.332;2023-07-28T14:49:14;2.88;;;1.60;;
64597;SDS011;51004;54.692;9.332;2023-07-28T14:51:40;1.83;;;1.27;;
64597;SDS011;51004;54.692;9.332;2023-07-28T14:54:06;3.28;;;1.20;;
64597;SDS011;51004;54.692;9.332;2023-07-28T14:56:32;1.80;;;1.15;;